Time;durP1;ratioP1;P1;durP2;ratioP2;P2;SDS_P1;SDS_P2;PMS_P1;PMS_P2;Temp;Humidity;BMP_temperature;BMP_pressure;BME280_temperature;BME280_humidity;BME280_pressure;Samples;Min_cycle;Max_cycle;Signal;HPM_P1;HPM_P2
2021/03/25 00:01:08;;;;;;;69.00;35.65;;;;;;;2.63;71.54;99366.41;2251905;79;21171;-81
2021/03/25 00:04:10;;;;;;;62.23;31.87;;;;;;;2.53;71.63;99358.98;2251897;79;21761;-82
2021/03/25 00:07:11;;;;;;;73.50;36.33;;;;;;;2.45;71.71;99370.34;2251768;79;21136;-82
2021/03/25 00:10:13;;;;;;;73.02;35.43;;;;;;;2.36;72.25;99360.67;2251837;79;21547;-82
2021/03/25 00:13:14;;;;;;;67.32;34.15;;;;;;;2.30;72.28;99359.38;2252170;79;21298;-82
2021/03/25 00:16:16;;;;;;;71.72;32.48;;;;;;;2.23;72.20;99358.17;2252079;79;21178;-82
2021/03/25 00:19:18;;;;;;;67.75;34.80;;;;;;;2.19;72.23;99355.44;2251802;79;21294;-82
2021/03/25 00:22:19;;;;;;;66.45;33.30;;;;;;;2.12;72.21;99357.66;2252107;79;21281;-81
2021/03/25 00:25:21;;;;;;;68.90;33.38;;;;;;;2.05;72.12;99357.73;2251884;79;21135;-81
2021/03/25 00:28:23;;;;;;;72.40;34.30;;;;;;;1.98;72.17;99357.80;2251972;79;21634;-82
2021/03/25 00:31:25;;;;;;;71.30;34.45;;;;;;;1.87;72.12;99362.45;2251938;79;21742;-81
2021/03/25 00:34:26;;;;;;;79.75;38.80;;;;;;;1.77;72.37;99363.21;2252064;79;21305;-82
2021/03/25 00:37:28;;;;;;;69.87;36.17;;;;;;;1.66;72.53;99360.92;2252156;79;21154;-82
2021/03/25 00:40:29;;;;;;;66.40;33.65;;;;;;;1.60;72.78;99354.06;2252079;79;21297;-82
2021/03/25 00:43:31;;;;;;;62.20;33.42;;;;;;;1.59;72.97;99352.41;2251708;79;21289;-82
2021/03/25 00:46:32;;;;;;;78.47;40.30;;;;;;;1.56;72.75;99346.19;2252018;79;21698;-82
2021/03/25 00:49:34;;;;;;;85.20;42.05;;;;;;;1.52;73.48;99347.31;2251645;79;21615;-81
2021/03/25 00:52:36;;;;;;;87.45;40.98;;;;;;;1.48;73.84;99344.13;2252018;79;21293;-81
2021/03/25 00:55:37;;;;;;;81.25;41.42;;;;;;;1.51;74.18;99341.80;2251865;79;21269;-82
2021/03/25 00:58:39;;;;;;;74.53;40.15;;;;;;;1.51;74.52;99340.50;2252095;79;21270;-83
2021/03/25 01:01:40;;;;;;;70.45;36.23;;;;;;;1.56;74.82;99346.19;2251785;79;21297;-82
2021/03/25 01:04:42;;;;;;;65.97;36.88;;;;;;;1.69;75.20;99341.80;2251852;79;21178;-81
2021/03/25 01:07:43;;;;;;;72.25;38.02;;;;;;;1.81;75.27;99340.92;2252057;79;21293;-82
2021/03/25 01:10:45;;;;;;;68.97;37.93;;;;;;;1.95;75.50;99327.86;2251815;79;21321;-82
2021/03/25 01:13:46;;;;;;;67.70;38.02;;;;;;;2.09;75.43;99332.02;2251971;79;21284;-81
2021/03/25 01:16:48;;;;;;;70.85;37.48;;;;;;;2.24;75.47;99321.05;2251980;79;21610;-81
2021/03/25 01:19:50;;;;;;;69.32;37.73;;;;;;;2.36;75.34;99329.66;2251820;79;21659;-81
2021/03/25 01:22:52;;;;;;;64.65;35.63;;;;;;;2.49;75.19;99322.20;2252042;79;21320;-81
2021/03/25 01:25:53;;;;;;;66.90;36.55;;;;;;;2.58;74.92;99321.98;2251714;79;21285;-82
2021/03/25 01:28:55;;;;;;;63.23;35.68;;;;;;;2.64;75.02;99321.52;2251939;79;21686;-82
2021/03/25 01:31:56;;;;;;;65.22;36.05;;;;;;;2.76;75.17;99315.44;2251844;79;21150;-82
2021/03/25 01:34:58;;;;;;;65.35;36.80;;;;;;;2.85;75.24;99317.34;2252174;79;21285;-82
2021/03/25 01:38:00;;;;;;;62.67;33.78;;;;;;;2.99;75.06;99322.74;2251914;79;21159;-81
2021/03/25 01:41:01;;;;;;;63.10;35.58;;;;;;;2.99;75.02;99316.27;2251917;79;21254;-81
2021/03/25 01:44:03;;;;;;;68.70;35.40;;;;;;;2.94;75.08;99311.94;2251994;79;21305;-81
2021/03/25 01:47:04;;;;;;;70.60;36.00;;;;;;;2.97;75.04;99314.28;2251814;79;21281;-81
2021/03/25 01:50:06;;;;;;;68.78;36.42;;;;;;;3.03;75.20;99306.06;2238806;79;21319;-82
2021/03/25 01:53:07;;;;;;;61.70;33.08;;;;;;;3.11;75.05;99302.89;2237205;80;21336;-82
2021/03/25 01:56:09;;;;;;;62.27;35.60;;;;;;;3.22;75.16;99304.17;2236593;80;21166;-82
2021/03/25 01:59:10;;;;;;;62.15;37.58;;;;;;;3.23;74.98;99308.88;2236846;80;21271;-82
2021/03/25 02:02:12;;;;;;;60.43;35.88;;;;;;;3.28;74.85;99304.16;2236772;80;21283;-82
2021/03/25 02:05:14;;;;;;;48.17;27.75;;;;;;;3.29;74.66;99295.00;2236570;80;21141;-81
2021/03/25 02:08:15;;;;;;;59.70;34.03;;;;;;;3.28;74.88;99298.50;2236561;80;21138;-82
2021/03/25 02:11:17;;;;;;;60.67;34.55;;;;;;;3.17;74.91;99292.52;2236923;80;21229;-81
2021/03/25 02:14:18;;;;;;;56.20;32.65;;;;;;;3.14;75.10;99296.17;2236901;80;21280;-82
2021/03/25 02:17:20;;;;;;;60.60;33.28;;;;;;;3.17;75.33;99286.05;2236995;80;21153;-81
2021/03/25 02:20:24;;;;;;;61.10;34.45;;;;;;;3.21;75.31;99296.53;2237161;80;21291;-83
2021/03/25 02:23:25;;;;;;;58.10;35.15;;;;;;;3.27;75.35;99292.98;2236695;80;22270;-82
2021/03/25 02:26:27;;;;;;;63.45;34.80;;;;;;;3.35;75.37;99297.09;2236857;80;21264;-82
2021/03/25 02:29:28;;;;;;;73.52;37.20;;;;;;;3.48;75.47;99292.27;2236725;80;21299;-83
2021/03/25 02:32:30;;;;;;;69.25;36.58;;;;;;;3.51;75.24;99294.61;2236640;80;21145;-81
2021/03/25 02:35:31;;;;;;;96.15;44.08;;;;;;;3.52;75.02;99291.08;2236458;80;21154;-82
2021/03/25 02:38:33;;;;;;;92.45;46.42;;;;;;;3.44;74.96;99286.48;2236874;80;21268;-83
2021/03/25 02:41:34;;;;;;;90.85;43.70;;;;;;;3.47;74.98;99284.95;2236694;80;21731;-82
2021/03/25 02:44:36;;;;;;;74.58;41.92;;;;;;;3.33;74.91;99282.63;2236749;80;21300;-82
2021/03/25 02:47:38;;;;;;;60.50;36.15;;;;;;;3.27;75.08;99286.98;2236653;80;21173;-81
2021/03/25 02:50:39;;;;;;;72.37;39.05;;;;;;;3.35;75.08;99286.73;2250803;79;21262;-82
2021/03/25 02:53:41;;;;;;;66.72;39.00;;;;;;;3.45;75.02;99274.37;2251626;79;21289;-82
2021/03/25 02:56:43;;;;;;;68.57;39.00;;;;;;;3.42;74.92;99271.08;2251636;79;21159;-82
2021/03/25 02:59:44;;;;;;;69.20;39.25;;;;;;;3.46;75.12;99282.01;2251634;79;21304;-83
2021/03/25 03:02:46;;;;;;;71.37;40.15;;;;;;;3.56;75.20;99276.92;2251634;79;21305;-81
2021/03/25 03:05:47;;;;;;;73.50;42.53;;;;;;;3.60;75.09;99273.98;2251697;79;21111;-83
2021/03/25 03:08:49;;;;;;;70.05;40.10;;;;;;;3.66;75.05;99272.69;2251948;79;21297;-82
2021/03/25 03:11:50;;;;;;;87.85;47.95;;;;;;;3.64;74.88;99276.67;2251853;79;21293;-82
2021/03/25 03:14:52;;;;;;;88.58;50.25;;;;;;;3.56;74.79;99284.70;2251922;79;21306;-81
2021/03/25 03:17:54;;;;;;;91.28;47.73;;;;;;;3.45;74.47;99276.95;2251687;79;21317;-81
2021/03/25 03:20:56;;;;;;;82.17;46.48;;;;;;;3.30;74.65;99283.70;2251914;79;21718;-81
2021/03/25 03:23:57;;;;;;;81.40;45.83;;;;;;;3.27;75.00;99280.03;2252665;79;21162;-82
2021/03/25 03:26:59;;;;;;;69.67;38.95;;;;;;;3.35;75.20;99278.97;2252134;79;21679;-82
2021/03/25 03:30:00;;;;;;;59.05;34.40;;;;;;;3.35;75.07;99282.85;2252060;79;21135;-82
2021/03/25 03:33:02;;;;;;;56.25;34.20;;;;;;;3.31;75.04;99278.88;2252048;79;21321;-82
2021/03/25 03:36:04;;;;;;;53.58;31.52;;;;;;;3.30;75.03;99282.88;2252405;79;21297;-81
2021/03/25 03:39:05;;;;;;;53.92;31.70;;;;;;;3.29;74.69;99280.77;2252085;79;21143;-81
2021/03/25 03:42:07;;;;;;;64.92;35.63;;;;;;;3.23;74.86;99283.82;2252076;79;21367;-83
2021/03/25 03:45:08;;;;;;;61.68;34.75;;;;;;;3.23;74.94;99279.94;2251766;79;21131;-82
2021/03/25 03:48:10;;;;;;;61.00;32.93;;;;;;;3.23;74.94;99279.11;2251281;79;21629;-82
2021/03/25 03:51:12;;;;;;;56.08;34.30;;;;;;;3.10;75.98;99264.52;2236697;80;21110;-82
2021/03/25 03:54:14;;;;;;;66.25;37.40;;;;;;;2.90;75.30;99270.88;2236961;80;21137;-83
2021/03/25 03:57:15;;;;;;;94.67;45.58;;;;;;;2.82;75.59;99276.16;2236663;80;21149;-83
2021/03/25 04:00:17;;;;;;;78.95;41.30;;;;;;;2.86;75.86;99276.77;2237127;80;21276;-82
2021/03/25 04:03:18;;;;;;;77.35;37.65;;;;;;;2.87;76.01;99273.24;2236581;80;21145;-82
2021/03/25 04:06:20;;;;;;;66.90;36.98;;;;;;;2.94;76.16;99270.55;2236630;80;21628;-83
2021/03/25 04:09:22;;;;;;;64.87;33.80;;;;;;;3.03;76.12;99276.30;2236715;80;21158;-82
2021/03/25 04:12:24;;;;;;;69.80;37.10;;;;;;;3.11;76.11;99277.84;2236691;80;21182;-82
2021/03/25 04:15:25;;;;;;;68.12;35.28;;;;;;;3.20;76.10;99276.75;2236594;80;21727;-84
2021/03/25 04:18:27;;;;;;;57.40;31.90;;;;;;;3.28;76.04;99273.91;2236966;80;21272;-82
2021/03/25 04:21:29;;;;;;;52.17;30.30;;;;;;;3.32;76.09;99274.52;2236641;80;21086;-82
2021/03/25 04:24:30;;;;;;;61.68;32.10;;;;;;;3.29;75.92;99277.32;2237023;80;21284;-82
2021/03/25 04:27:32;;;;;;;55.83;31.17;;;;;;;3.25;75.72;99278.05;2236866;80;21302;-82
2021/03/25 04:30:34;;;;;;;65.87;35.95;;;;;;;3.26;75.74;99264.63;2237001;80;21291;-82
2021/03/25 04:33:35;;;;;;;63.45;35.33;;;;;;;3.28;75.76;99265.33;2236611;79;21126;-83
2021/03/25 04:36:37;;;;;;;64.77;34.13;;;;;;;3.31;75.71;99279.34;2236798;80;21252;-82
2021/03/25 04:39:39;;;;;;;73.35;37.90;;;;;;;3.36;75.89;99274.14;2237166;80;21256;-83
2021/03/25 04:42:40;;;;;;;74.90;37.55;;;;;;;3.49;75.91;99283.55;2236668;80;21280;-82
2021/03/25 04:45:42;;;;;;;74.25;37.40;;;;;;;3.56;75.88;99280.81;2236603;80;21276;-82
2021/03/25 04:48:43;;;;;;;66.90;36.63;;;;;;;3.66;75.83;99277.87;2238101;79;21281;-82
2021/03/25 04:51:45;;;;;;;60.67;33.15;;;;;;;3.73;75.59;99284.19;2251494;79;21273;-83
2021/03/25 04:54:47;;;;;;;79.27;40.12;;;;;;;3.68;75.30;99291.52;2251889;79;21269;-82
2021/03/25 04:57:48;;;;;;;70.30;36.38;;;;;;;3.68;75.43;99296.22;2252170;79;21285;-82
2021/03/25 05:00:50;;;;;;;62.13;35.35;;;;;;;3.66;75.43;99293.41;2252110;79;21301;-83
2021/03/25 05:03:52;;;;;;;77.62;39.95;;;;;;;3.67;75.41;99302.82;2252154;79;21313;-81
2021/03/25 05:06:53;;;;;;;74.87;41.05;;;;;;;3.66;75.24;99294.70;2251743;79;21282;-83
2021/03/25 05:09:55;;;;;;;69.32;38.65;;;;;;;3.69;75.44;99292.68;2251667;79;21265;-83
2021/03/25 05:12:56;;;;;;;86.92;44.05;;;;;;;3.74;75.23;99302.66;2252068;79;21304;-83
2021/03/25 05:15:58;;;;;;;75.60;40.08;;;;;;;3.73;75.36;99304.91;2252283;79;21694;-82
2021/03/25 05:19:00;;;;;;;68.45;37.75;;;;;;;3.82;75.52;99305.95;2252490;79;21301;-81
2021/03/25 05:22:01;;;;;;;57.33;31.25;;;;;;;3.86;75.44;99302.18;2252152;79;21577;-81
2021/03/25 05:25:03;;;;;;;69.70;38.08;;;;;;;3.79;75.06;99297.95;2252989;79;21282;-82
2021/03/25 05:28:04;;;;;;;68.28;37.78;;;;;;;3.78;75.45;99314.45;2252385;79;21146;-83
2021/03/25 05:31:06;;;;;;;73.25;39.95;;;;;;;3.89;75.43;99307.11;2252802;79;21166;-81
2021/03/25 05:34:08;;;;;;;79.77;40.80;;;;;;;4.00;75.38;99306.59;2253128;79;21139;-82
2021/03/25 05:37:10;;;;;;;81.82;39.40;;;;;;;4.08;75.25;99307.27;2253169;79;21282;-84
2021/03/25 05:40:11;;;;;;;75.42;36.17;;;;;;;4.20;75.21;99302.86;2252233;79;21112;-87
2021/03/25 05:43:13;;;;;;;76.57;37.75;;;;;;;4.32;75.02;99303.17;2251757;79;21899;-82
2021/03/25 05:46:14;;;;;;;65.20;35.55;;;;;;;4.25;74.90;99298.95;2251750;79;21274;-84
2021/03/25 05:49:16;;;;;;;66.30;38.42;;;;;;;4.19;74.98;99298.15;2251764;79;21191;-81
2021/03/25 05:52:18;;;;;;;68.17;35.90;;;;;;;4.23;75.12;99310.41;2252073;79;21313;-80
2021/03/25 05:55:20;;;;;;;68.90;37.23;;;;;;;4.26;74.87;99312.73;2252040;79;21269;-84
2021/03/25 05:58:21;;;;;;;69.25;38.55;;;;;;;4.30;74.67;99318.04;2252393;79;21317;-81
2021/03/25 06:01:23;;;;;;;63.00;37.45;;;;;;;4.41;74.73;99313.27;2252082;79;21151;-86
2021/03/25 06:04:24;;;;;;;67.30;35.90;;;;;;;4.46;74.50;99313.22;2251932;79;21294;-83
2021/03/25 06:07:26;;;;;;;64.37;34.20;;;;;;;4.43;74.62;99314.78;2251828;79;21285;-82
2021/03/25 06:10:28;;;;;;;57.25;32.88;;;;;;;4.48;74.76;99326.05;2252022;79;21654;-81
2021/03/25 06:13:30;;;;;;;67.85;36.40;;;;;;;4.49;74.61;99329.03;2252069;79;21123;-81
2021/03/25 06:16:33;;;;;;;61.88;33.63;;;;;;;4.59;74.61;99331.20;2251755;79;21282;-82
2021/03/25 06:19:35;;;;;;;66.72;37.45;;;;;;;4.71;74.35;99330.19;2252000;79;21297;-84
2021/03/25 06:22:36;;;;;;;68.87;38.53;;;;;;;4.78;74.31;99330.03;2251777;79;21135;-83
2021/03/25 06:25:39;;;;;;;66.87;36.85;;;;;;;4.82;74.27;99322.32;2251695;79;21130;-84
2021/03/25 06:28:41;;;;;;;63.95;37.15;;;;;;;4.86;73.96;99319.02;2252013;79;21682;-84
2021/03/25 06:31:42;;;;;;;67.67;36.45;;;;;;;4.88;73.79;99320.18;2251730;79;21306;-81
2021/03/25 06:34:44;;;;;;;59.08;36.35;;;;;;;4.93;73.97;99325.31;2251786;79;21167;-86
2021/03/25 06:37:45;;;;;;;69.62;36.38;;;;;;;5.00;74.21;99329.05;2252257;79;21461;-84
2021/03/25 06:40:47;;;;;;;63.48;36.30;;;;;;;5.21;74.24;99322.98;2252011;79;21274;-83
2021/03/25 06:43:49;;;;;;;65.00;35.58;;;;;;;5.30;73.81;99326.94;2252074;79;21266;-82
2021/03/25 06:46:51;;;;;;;64.50;36.58;;;;;;;5.38;73.81;99325.78;2252326;79;21257;-84
2021/03/25 06:49:53;;;;;;;69.72;37.58;;;;;;;5.50;73.84;99329.60;2252375;79;21321;-84
2021/03/25 06:52:54;;;;;;;76.30;42.30;;;;;;;5.59;73.59;99340.50;2252890;79;21689;-84
2021/03/25 06:55:56;;;;;;;73.70;39.80;;;;;;;5.68;73.38;99347.02;2252278;79;21340;-83
2021/03/25 06:58:58;;;;;;;78.52;41.88;;;;;;;5.78;73.09;99338.42;2251923;79;21158;-80
2021/03/25 07:02:00;;;;;;;70.03;39.27;;;;;;;5.82;72.63;99347.11;2252440;79;21257;-82
2021/03/25 07:05:01;;;;;;;73.40;39.23;;;;;;;5.94;72.58;99345.23;2252092;79;21321;-82
2021/03/25 07:08:03;;;;;;;68.00;38.63;;;;;;;6.13;72.68;99347.06;2252360;79;21717;-83
2021/03/25 07:11:05;;;;;;;68.37;37.67;;;;;;;6.31;72.20;99341.98;2252691;79;21258;-82
2021/03/25 07:14:07;;;;;;;69.27;37.70;;;;;;;6.49;71.92;99338.58;2252311;79;21325;-81
2021/03/25 07:17:09;;;;;;;64.58;38.35;;;;;;;6.61;71.68;99342.33;2252565;79;21540;-82
2021/03/25 07:20:11;;;;;;;71.35;40.33;;;;;;;6.75;71.70;99343.17;2252373;79;21298;-82
2021/03/25 07:23:13;;;;;;;63.02;38.75;;;;;;;6.90;71.37;99336.58;2252621;79;21713;-80
2021/03/25 07:26:15;;;;;;;68.78;37.98;;;;;;;7.00;71.09;99332.16;2252510;79;21555;-80
2021/03/25 07:29:17;;;;;;;62.25;37.05;;;;;;;6.99;70.83;99338.34;2252098;79;21312;-81
2021/03/25 07:32:18;;;;;;;64.55;37.17;;;;;;;7.04;70.73;99343.11;2251691;79;21163;-81
2021/03/25 07:35:20;;;;;;;61.25;36.50;;;;;;;7.13;70.34;99345.70;2252541;79;21320;-81
2021/03/25 07:38:22;;;;;;;51.98;33.75;;;;;;;7.19;70.18;99337.79;2251761;79;21641;-81
2021/03/25 07:41:24;;;;;;;62.27;37.35;;;;;;;7.19;69.77;99340.39;2251959;79;21293;-82
2021/03/25 07:44:26;;;;;;;64.70;38.08;;;;;;;7.22;69.93;99336.19;2251882;79;21293;-81
2021/03/25 07:47:27;;;;;;;70.65;39.98;;;;;;;7.32;69.04;99336.19;2252410;79;21269;-82
2021/03/25 07:50:29;;;;;;;76.33;43.90;;;;;;;7.48;69.17;99337.66;2245761;78;21145;-82
2021/03/25 07:53:31;;;;;;;70.35;41.02;;;;;;;7.64;68.45;99342.26;2236809;80;21236;-82
2021/03/25 07:56:33;;;;;;;74.70;41.83;;;;;;;7.72;67.83;99338.45;2237187;80;21129;-82
2021/03/25 07:59:34;;;;;;;61.50;35.35;;;;;;;7.78;67.83;99333.96;2237275;80;21303;-82
2021/03/25 08:02:36;;;;;;;64.15;38.13;;;;;;;7.86;66.99;99334.05;2237059;80;21343;-82
2021/03/25 08:05:38;;;;;;;96.82;54.50;;;;;;;7.91;66.72;99335.72;2236583;80;21589;-83
2021/03/25 08:08:40;;;;;;;79.62;45.63;;;;;;;7.98;66.51;99331.56;2236821;80;21303;-82
2021/03/25 08:11:42;;;;;;;65.57;38.48;;;;;;;8.13;66.30;99334.94;2236611;80;21267;-83
2021/03/25 08:14:44;;;;;;;64.77;39.27;;;;;;;8.22;65.67;99330.95;2236765;80;21158;-82
2021/03/25 08:17:46;;;;;;;55.50;34.63;;;;;;;8.30;65.69;99345.05;2237106;80;21288;-81
2021/03/25 08:20:48;;;;;;;61.95;37.90;;;;;;;8.39;65.25;99339.78;2237207;80;21296;-83
2021/03/25 08:23:49;;;;;;;65.20;38.73;;;;;;;8.43;65.32;99339.02;2237132;80;22138;-83
2021/03/25 08:26:52;;;;;;;63.15;38.08;;;;;;;8.49;65.42;99335.78;2237380;80;21561;-79
2021/03/25 08:29:54;;;;;;;65.45;40.98;;;;;;;8.60;64.84;99334.75;2236969;80;21291;-83
2021/03/25 08:32:55;;;;;;;76.55;45.65;;;;;;;8.73;64.87;99337.77;2236729;80;21157;-83
2021/03/25 08:35:57;;;;;;;68.83;43.15;;;;;;;8.85;63.82;99341.76;2236843;80;21264;-82
2021/03/25 08:38:59;;;;;;;68.83;41.60;;;;;;;8.93;63.37;99340.51;2237267;80;21269;-83
2021/03/25 08:42:01;;;;;;;71.85;44.08;;;;;;;9.08;63.15;99340.28;2237054;79;21130;-83
2021/03/25 08:45:02;;;;;;;66.87;41.53;;;;;;;9.24;62.88;99335.64;2237146;80;21312;-83
2021/03/25 08:48:04;;;;;;;68.05;43.17;;;;;;;9.35;62.29;99341.08;2236878;80;21177;-82
2021/03/25 08:51:06;;;;;;;64.97;40.17;;;;;;;9.46;62.50;99338.19;2236726;79;21751;-83
2021/03/25 08:54:07;;;;;;;68.45;44.55;;;;;;;9.58;61.20;99338.71;2236685;80;21247;-83
2021/03/25 08:57:09;;;;;;;74.50;45.08;;;;;;;9.60;61.84;99345.44;2236997;80;21118;-83
2021/03/25 09:00:10;;;;;;;73.85;44.58;;;;;;;9.80;61.00;99339.45;2237586;80;21271;-82
2021/03/25 09:03:12;;;;;;;72.05;45.03;;;;;;;9.94;60.14;99344.05;2236937;80;21629;-82
2021/03/25 09:06:14;;;;;;;65.45;41.68;;;;;;;10.05;60.20;99337.69;2236950;80;21287;-84
2021/03/25 09:09:15;;;;;;;72.95;44.05;;;;;;;10.13;58.82;99336.40;2237260;80;21632;-83
2021/03/25 09:12:17;;;;;;;67.40;42.75;;;;;;;10.28;59.27;99333.19;2237039;80;21122;-83
2021/03/25 09:15:20;;;;;;;69.75;42.80;;;;;;;10.43;58.64;99332.88;2237060;80;21263;-82
2021/03/25 09:18:22;;;;;;;66.92;42.13;;;;;;;10.52;58.52;99321.42;2237236;80;21291;-83
2021/03/25 09:21:23;;;;;;;62.53;41.65;;;;;;;10.71;57.23;99328.13;2236686;80;21114;-87
2021/03/25 09:24:25;;;;;;;63.92;42.30;;;;;;;10.79;56.80;99332.05;2236694;80;21123;-88
2021/03/25 09:27:27;;;;;;;63.90;41.73;;;;;;;10.86;56.83;99328.25;2236841;80;21252;-89
2021/03/25 09:30:28;;;;;;;59.58;40.10;;;;;;;10.96;55.33;99318.41;2236886;80;21303;-85
2021/03/25 09:33:30;;;;;;;52.83;34.27;;;;;;;10.98;56.49;99325.14;2237145;80;21165;-85
2021/03/25 09:36:31;;;;;;;55.67;35.85;;;;;;;11.04;55.38;99323.63;2236449;80;21500;-86
2021/03/25 09:39:33;;;;;;;47.90;32.90;;;;;;;11.15;55.24;99322.45;2237122;80;21134;-85
2021/03/25 09:42:35;;;;;;;49.85;31.10;;;;;;;11.35;55.75;99319.30;2236953;80;21280;-86
2021/03/25 09:45:36;;;;;;;52.38;32.70;;;;;;;11.52;54.67;99319.20;2236991;80;21125;-84
2021/03/25 09:48:38;;;;;;;47.98;32.38;;;;;;;11.64;54.69;99319.17;2236560;80;21593;-82
2021/03/25 09:51:39;;;;;;;49.85;31.50;;;;;;;11.77;53.81;99314.66;2245976;79;21289;-84
2021/03/25 09:54:41;;;;;;;52.53;33.00;;;;;;;11.98;52.81;99321.94;2251801;79;21239;-82
2021/03/25 09:57:43;;;;;;;46.23;32.63;;;;;;;11.98;52.81;99321.94;2251549;79;21286;-83
2021/03/25 10:00:45;;;;;;;41.77;29.02;;;;;;;12.04;53.43;99315.52;2251673;79;21261;-85
2021/03/25 10:03:52;;;;;;;47.43;33.30;;;;;;;12.12;52.58;99314.65;2251957;79;21281;-83
2021/03/25 10:06:56;;;;;;;55.58;35.78;;;;;;;12.24;52.24;99316.67;2252143;79;21772;-85
2021/03/25 10:09:58;;;;;;;62.40;42.40;;;;;;;12.30;52.17;99318.30;2252112;79;21285;-85
2021/03/25 10:13:00;;;;;;;56.63;39.63;;;;;;;12.46;50.01;99308.98;2251769;79;21170;-82
2021/03/25 10:16:02;;;;;;;48.95;34.70;;;;;;;12.46;50.01;99308.98;2251379;79;21155;-84
2021/03/25 10:19:05;;;;;;;47.85;32.60;;;;;;;12.40;51.23;99303.92;2251483;79;21150;-85
2021/03/25 10:22:07;;;;;;;43.10;31.20;;;;;;;12.52;50.30;99296.44;2251416;79;21285;-84
2021/03/25 10:25:09;;;;;;;48.25;32.67;;;;;;;12.65;50.19;99302.41;2251646;79;21147;-85
2021/03/25 10:28:11;;;;;;;46.10;32.15;;;;;;;12.73;50.68;99296.58;2251851;79;21674;-86
2021/03/25 10:31:13;;;;;;;45.63;31.80;;;;;;;12.86;50.43;99292.02;2252482;79;21265;-89
2021/03/25 10:34:14;;;;;;;46.77;32.25;;;;;;;12.84;49.43;99292.70;2252344;79;21286;-86
2021/03/25 10:37:16;;;;;;;48.48;34.90;;;;;;;12.82;49.33;99289.44;2252315;79;21302;-88
2021/03/25 10:40:18;;;;;;;43.13;32.73;;;;;;;12.85;48.43;99292.20;2251558;79;21532;-86
2021/03/25 10:43:19;;;;;;;47.70;33.38;;;;;;;12.84;48.57;99290.57;2251591;79;21274;-86
2021/03/25 10:46:21;;;;;;;41.50;30.68;;;;;;;12.80;48.62;99290.94;2251718;79;21245;-86
2021/03/25 10:49:22;;;;;;;48.45;33.80;;;;;;;12.67;48.44;99282.03;2251679;79;21159;-84
2021/03/25 10:52:24;;;;;;;47.88;33.13;;;;;;;12.80;48.92;99291.41;2251405;79;21321;-86
2021/03/25 10:55:26;;;;;;;52.43;35.08;;;;;;;12.84;48.02;99291.88;2251836;79;21297;-85
2021/03/25 10:58:29;;;;;;;50.70;35.75;;;;;;;12.83;47.43;99292.88;2252041;79;21293;-86
2021/03/25 11:01:30;;;;;;;50.25;34.70;;;;;;;12.63;47.05;99283.39;2251781;79;21293;-84
2021/03/25 11:04:32;;;;;;;53.40;36.20;;;;;;;12.53;47.70;99273.95;2251663;79;21313;-85
2021/03/25 11:07:34;;;;;;;50.28;34.92;;;;;;;12.53;47.70;99273.95;2251699;79;21285;-84
2021/03/25 11:10:36;;;;;;;53.68;35.75;;;;;;;12.44;46.93;99273.70;2251840;79;21199;-88
2021/03/25 11:13:37;;;;;;;44.83;32.28;;;;;;;12.34;47.58;99274.92;2251957;79;21285;-87
2021/03/25 11:16:39;;;;;;;50.58;35.98;;;;;;;12.34;46.64;99267.86;2251369;79;21290;-87
2021/03/25 11:19:41;;;;;;;52.10;35.45;;;;;;;12.20;47.34;99268.16;2252031;79;21285;-83
2021/03/25 11:22:43;;;;;;;51.95;37.42;;;;;;;12.18;47.48;99262.27;2251596;79;21306;-85
2021/03/25 11:25:44;;;;;;;54.73;37.63;;;;;;;12.12;47.25;99259.03;2251737;79;21757;-85
2021/03/25 11:28:46;;;;;;;57.17;38.83;;;;;;;12.06;47.87;99254.47;2252277;79;21136;-85
2021/03/25 11:31:48;;;;;;;52.93;36.45;;;;;;;12.02;47.59;99255.02;2253220;78;21309;-83
2021/03/25 11:34:50;;;;;;;54.08;36.80;;;;;;;11.99;48.06;99251.44;2252816;79;21306;-82
2021/03/25 11:37:52;;;;;;;57.73;37.33;;;;;;;11.91;47.71;99247.05;2252561;79;21171;-83
2021/03/25 11:40:53;;;;;;;59.42;36.50;;;;;;;11.75;47.96;99233.52;2253173;79;21159;-84
2021/03/25 11:43:55;;;;;;;57.88;38.23;;;;;;;11.74;48.22;99242.88;2252596;79;21143;-84
2021/03/25 11:46:57;;;;;;;57.80;38.20;;;;;;;11.71;48.15;99236.18;2251803;79;21277;-85
2021/03/25 11:49:59;;;;;;;53.13;36.33;;;;;;;11.68;48.34;99228.64;2251879;79;21579;-85
2021/03/25 11:53:01;;;;;;;57.88;36.85;;;;;;;11.65;48.09;99222.44;2251908;79;21269;-85
2021/03/25 11:56:02;;;;;;;59.05;38.33;;;;;;;11.62;47.80;99225.41;2252000;79;21305;-89
2021/03/25 11:59:04;;;;;;;54.93;35.73;;;;;;;11.59;48.39;99218.69;2251934;79;21737;-85
2021/03/25 12:02:06;;;;;;;62.35;40.75;;;;;;;11.66;48.62;99217.51;2251784;79;21305;-84
2021/03/25 12:05:08;;;;;;;57.75;36.98;;;;;;;11.72;48.70;99220.76;2251977;79;21171;-85
2021/03/25 12:08:09;;;;;;;54.42;36.20;;;;;;;11.77;48.28;99217.09;2251632;79;21274;-84
2021/03/25 12:11:11;;;;;;;58.20;37.03;;;;;;;11.77;48.63;99219.72;2251764;79;21725;-85
2021/03/25 12:14:13;;;;;;;52.83;37.63;;;;;;;11.74;48.27;99213.52;2251910;79;21281;-85
2021/03/25 12:17:15;;;;;;;43.13;28.67;;;;;;;11.66;48.35;99206.52;2252081;79;21281;-85
2021/03/25 12:20:17;;;;;;;56.20;38.33;;;;;;;11.60;47.45;99215.08;2251873;79;21681;-84
2021/03/25 12:23:18;;;;;;;56.55;36.88;;;;;;;11.49;47.76;99213.34;2251702;79;21303;-85
2021/03/25 12:26:20;;;;;;;59.88;37.75;;;;;;;11.46;48.34;99211.08;2251387;79;21175;-83
2021/03/25 12:29:22;;;;;;;56.13;37.28;;;;;;;11.47;48.07;99207.47;2251770;79;21317;-84
2021/03/25 12:32:24;;;;;;;55.35;37.28;;;;;;;11.47;48.60;99202.23;2251691;79;21329;-84
2021/03/25 12:35:25;;;;;;;50.98;36.30;;;;;;;11.49;48.51;99198.43;2251854;79;21245;-83
2021/03/25 12:38:27;;;;;;;49.00;34.30;;;;;;;11.49;48.33;99197.62;2251615;79;21274;-83
2021/03/25 12:41:28;;;;;;;61.75;39.27;;;;;;;11.42;47.89;99194.86;2251763;79;21141;-84
2021/03/25 12:44:30;;;;;;;57.20;35.55;;;;;;;11.32;48.16;99188.53;2251608;79;21298;-84
2021/03/25 12:47:32;;;;;;;59.10;37.75;;;;;;;11.30;48.71;99187.08;2251506;79;21169;-84
2021/03/25 12:50:33;;;;;;;52.85;35.08;;;;;;;11.28;48.40;99191.69;2251823;79;21313;-84
2021/03/25 12:53:35;;;;;;;50.33;31.57;;;;;;;11.27;48.60;99188.25;2251710;79;21273;-84
2021/03/25 12:56:38;;;;;;;53.50;34.13;;;;;;;11.27;47.95;99183.00;2251888;79;21127;-86
2021/03/25 12:59:40;;;;;;;52.78;35.35;;;;;;;11.18;48.23;99184.53;2252130;79;21309;-84
2021/03/25 13:02:43;;;;;;;54.77;36.30;;;;;;;11.07;48.53;99181.31;2251942;79;21297;-83
2021/03/25 13:05:45;;;;;;;60.73;41.18;;;;;;;11.00;48.75;99177.73;2252211;79;21270;-82
2021/03/25 13:08:48;;;;;;;57.33;36.33;;;;;;;11.00;49.13;99174.30;2252970;79;21179;-83
2021/03/25 13:11:50;;;;;;;57.48;38.33;;;;;;;11.00;49.21;99172.49;2252634;79;21285;-84
2021/03/25 13:14:51;;;;;;;53.38;36.35;;;;;;;11.03;49.29;99166.90;2251895;79;21761;-81
2021/03/25 13:17:53;;;;;;;73.87;40.80;;;;;;;10.98;48.91;99161.87;2251632;79;21278;-82
2021/03/25 13:20:55;;;;;;;60.85;38.58;;;;;;;10.98;49.27;99160.56;2251705;79;21642;-83
2021/03/25 13:23:58;;;;;;;59.90;38.17;;;;;;;11.03;49.50;99155.61;2251857;79;21119;-82
2021/03/25 13:27:00;;;;;;;52.43;35.48;;;;;;;11.11;49.64;99160.31;2251752;79;21736;-83
2021/03/25 13:30:02;;;;;;;62.38;39.45;;;;;;;11.17;49.50;99157.51;2251396;79;21290;-84
2021/03/25 13:33:04;;;;;;;64.87;38.45;;;;;;;11.20;49.33;99158.46;2252681;79;21299;-82
2021/03/25 13:36:06;;;;;;;59.77;36.28;;;;;;;11.24;49.42;99154.50;2251571;79;21302;-83
2021/03/25 13:39:08;;;;;;;57.40;36.40;;;;;;;11.27;49.34;99154.66;2251777;79;21306;-89
2021/03/25 13:42:09;;;;;;;53.52;35.45;;;;;;;11.30;49.24;99149.06;2251975;79;21273;-84
2021/03/25 13:45:11;;;;;;;53.58;35.95;;;;;;;11.31;48.62;99153.31;2251799;79;21277;-85
2021/03/25 13:48:13;;;;;;;52.95;36.13;;;;;;;11.26;48.44;99154.34;2251753;79;21278;-85
2021/03/25 13:51:14;;;;;;;57.30;36.28;;;;;;;11.22;48.61;99146.48;2249740;78;21308;-84
2021/03/25 13:54:16;;;;;;;53.75;36.70;;;;;;;11.22;48.73;99145.99;2236441;80;21138;-84
2021/03/25 13:57:18;;;;;;;50.20;33.00;;;;;;;11.24;48.70;99144.50;2236724;80;21803;-83
2021/03/25 14:00:20;;;;;;;57.17;36.77;;;;;;;11.25;48.47;99143.05;2237283;80;21266;-83